Des Moines, IA

12:42 PM CST on November 27, 2014 (GMT -0600)
Witmer Park | Change Station
CLOSE
Current Station
Personal Weather Station
Location: Des Moines, IA
Elevation: 892 ft
Nearby Weather Stations

Elev 892 ft 41.61 °N, 93.66 °W | Updated 4 seconds ago

Partly Cloudy
Partly Cloudy
9.3 °F
Feels Like 9 °F
N
0.0
Wind Variable Wind from North
Gusts 0.0 mph

Today
High -- | Low -- °F
--% Chance of Precip.
Yesterday
High -- | Low -- °F
Precip. -- in
7:17 AM 4:46 PM
Waxing Crescent, 32% visible
Pressure 30.60 in
Visibility 10.0 miles
Clouds Few 7000 ft
Mostly Cloudy 26000 ft
Overcast 30000 ft
Windchill 9 °F
Dew Point 1 °F
Humidity 69%
Rainfall 0.00 in
Snow Depth Not available.
UV 1 out of 12
Pollen .10 out of 12
Air Quality Not available.
Flu Activity Not available.
METAR KDSM 271754Z 32008KT 10SM FEW070 BKN260 OVC300 M12/M19 A3054 RMK AO2 SLP360 4/002 933002 T11221189 11122 21156 50002

More Conditions Fewer Conditions

Pressure 30.60 in
Visibility 10.0 miles
Clouds Few 7000 ft
Mostly Cloudy 26000 ft
Overcast 30000 ft
Windchill 9 °F
Dew Point 1 °F
Humidity 69%
Rainfall 0.00 in
Snow Depth Not available.
UV 1 out of 12
Pollen .10 out of 12
Air Quality Not available.
Flu Activity Not available.
METAR KDSM 271754Z 32008KT 10SM FEW070 BKN260 OVC300 M12/M19 A3054 RMK AO2 SLP360 4/002 933002 T11221189 11122 21156 50002

More Conditions Fewer Conditions

10-Day Weather Forecast

Almanac

Astronomy

Nov. 27, 2014 Rise Set
Actual Time
Civil Twilight
Nautical Twilight
Astronomical Twilight
Moon
Length of Visible Light
Length of Day
Tomorrow will be .
, % of the Moon is Illuminated

Today's Extremes

State Highs State Lows

Community

WunderPhotos

Upload Photos

1,774,086 photos uploaded!

WunderBlogs® & News

Nearby

Air Quality

  Air Quality AQ Index Pollutant
Not available.

Snow Depth

Station Depth Elevation

Earthquake Activity

City Distance Mag. Time & Date
Minimum magnitude displayed is 2.5.

Coastal Water Temperatures

Place Temperature

Nearby Weather Stations